sensor_id;sensor_type;location;lat;lon;timestamp;P1;durP1;ratioP1;P2;durP2;ratioP2
26696;SDS011;14312;52.614;13.496;2024-02-15T16:20:31;4.95;;;3.97;;
26696;SDS011;14312;52.614;13.496;2024-02-15T16:23:17;5.75;;;4.13;;
26696;SDS011;14312;52.614;13.496;2024-02-15T16:26:03;4.75;;;4.35;;
26696;SDS011;14312;52.614;13.496;2024-02-15T16:28:51;4.22;;;3.80;;
26696;SDS011;14312;52.614;13.496;2024-02-15T16:31:37;4.50;;;4.10;;
26696;SDS011;14312;52.614;13.496;2024-02-15T16:34:23;6.30;;;4.00;;
26696;SDS011;14312;52.614;13.496;2024-02-15T16:37:10;4.63;;;4.13;;
26696;SDS011;14312;52.614;13.496;2024-02-15T16:39:57;4.65;;;4.05;;
26696;SDS011;14312;52.614;13.496;2024-02-15T16:42:44;4.30;;;3.90;;
26696;SDS011;14312;52.614;13.496;2024-02-15T16:45:33;5.55;;;4.00;;
26696;SDS011;14312;52.614;13.496;2024-02-15T16:48:19;4.25;;;3.78;;
26696;SDS011;14312;52.614;13.496;2024-02-15T16:51:05;3.88;;;3.50;;
26696;SDS011;14312;52.614;13.496;2024-02-15T16:53:53;4.88;;;3.60;;
26696;SDS011;14312;52.614;13.496;2024-02-15T16:56:40;5.10;;;3.70;;
26696;SDS011;14312;52.614;13.496;2024-02-15T16:59:27;4.00;;;3.65;;
26696;SDS011;14312;52.614;13.496;2024-02-15T17:02:13;4.07;;;3.67;;
26696;SDS011;14312;52.614;13.496;2024-02-15T17:04:59;4.15;;;3.30;;
26696;SDS011;14312;52.614;13.496;2024-02-15T17:07:46;3.70;;;3.40;;
26696;SDS011;14312;52.614;13.496;2024-02-15T17:10:32;5.00;;;3.10;;
26696;SDS011;14312;52.614;13.496;2024-02-15T17:13:19;3.10;;;2.80;;
26696;SDS011;14312;52.614;13.496;2024-02-15T17:16:05;3.58;;;3.22;;
26696;SDS011;14312;52.614;13.496;2024-02-15T17:18:52;3.38;;;2.78;;
26696;SDS011;14312;52.614;13.496;2024-02-15T17:21:39;3.47;;;3.17;;
26696;SDS011;14312;52.614;13.496;2024-02-15T17:24:28;3.10;;;2.80;;
26696;SDS011;14312;52.614;13.496;2024-02-15T17:27:14;3.45;;;3.15;;
26696;SDS011;14312;52.614;13.496;2024-02-15T17:30:01;3.00;;;2.70;;
26696;SDS011;14312;52.614;13.496;2024-02-15T17:32:48;2.72;;;2.53;;
26696;SDS011;14312;52.614;13.496;2024-02-15T17:35:34;2.90;;;2.70;;
26696;SDS011;14312;52.614;13.496;2024-02-15T17:38:22;3.45;;;3.15;;
26696;SDS011;14312;52.614;13.496;2024-02-15T17:41:09;4.20;;;3.20;;
26696;SDS011;14312;52.614;13.496;2024-02-15T17:43:57;4.57;;;3.58;;
26696;SDS011;14312;52.614;13.496;2024-02-15T17:46:45;3.50;;;3.08;;
26696;SDS011;14312;52.614;13.496;2024-02-15T17:49:31;3.80;;;3.50;;
26696;SDS011;14312;52.614;13.496;2024-02-15T17:52:17;3.78;;;3.47;;
26696;SDS011;14312;52.614;13.496;2024-02-15T17:55:03;4.22;;;3.30;;
26696;SDS011;14312;52.614;13.496;2024-02-15T17:57:51;3.72;;;3.42;;
26696;SDS011;14312;52.614;13.496;2024-02-15T18:00:37;4.63;;;3.50;;
26696;SDS011;14312;52.614;13.496;2024-02-15T18:03:26;3.65;;;3.35;;
26696;SDS011;14312;52.614;13.496;2024-02-15T18:06:12;3.47;;;3.17;;
26696;SDS011;14312;52.614;13.496;2024-02-15T18:08:58;3.33;;;3.03;;
26696;SDS011;14312;52.614;13.496;2024-02-15T18:11:42;4.00;;;3.60;;
26696;SDS011;14312;52.614;13.496;2024-02-15T18:14:28;5.03;;;3.70;;
26696;SDS011;14312;52.614;13.496;2024-02-15T18:17:14;3.60;;;3.30;;
26696;SDS011;14312;52.614;13.496;2024-02-15T18:19:59;3.40;;;3.08;;
26696;SDS011;14312;52.614;13.496;2024-02-15T18:22:46;3.53;;;3.20;;
26696;SDS011;14312;52.614;13.496;2024-02-15T18:25:32;4.10;;;3.70;;
26696;SDS011;14312;52.614;13.496;2024-02-15T18:28:18;4.03;;;3.63;;
26696;SDS011;14312;52.614;13.496;2024-02-15T18:31:04;3.88;;;3.53;;
26696;SDS011;14312;52.614;13.496;2024-02-15T18:33:53;3.70;;;3.10;;
26696;SDS011;14312;52.614;13.496;2024-02-15T18:36:40;3.70;;;3.40;;
26696;SDS011;14312;52.614;13.496;2024-02-15T18:39:27;3.70;;;3.40;;
26696;SDS011;14312;52.614;13.496;2024-02-15T18:42:13;3.53;;;3.22;;
26696;SDS011;14312;52.614;13.496;2024-02-15T18:45:03;4.25;;;3.30;;
26696;SDS011;14312;52.614;13.496;2024-02-15T18:47:50;3.35;;;3.05;;
26696;SDS011;14312;52.614;13.496;2024-02-15T18:50:36;4.68;;;3.80;;
26696;SDS011;14312;52.614;13.496;2024-02-15T18:53:22;4.20;;;3.35;;
26696;SDS011;14312;52.614;13.496;2024-02-15T18:56:12;3.83;;;3.53;;
26696;SDS011;14312;52.614;13.496;2024-02-15T18:59:00;3.40;;;3.10;;
26696;SDS011;14312;52.614;13.496;2024-02-15T19:01:51;3.75;;;3.45;;
26696;SDS011;14312;52.614;13.496;2024-02-15T19:04:37;4.13;;;3.55;;
26696;SDS011;14312;52.614;13.496;2024-02-15T19:07:24;4.32;;;3.05;;
26696;SDS011;14312;52.614;13.496;2024-02-15T19:10:10;3.60;;;3.30;;
26696;SDS011;14312;52.614;13.496;2024-02-15T19:12:58;4.07;;;3.67;;
26696;SDS011;14312;52.614;13.496;2024-02-15T19:15:44;4.00;;;3.70;;
26696;SDS011;14312;52.614;13.496;2024-02-15T19:18:30;4.55;;;4.15;;
26696;SDS011;14312;52.614;13.496;2024-02-15T19:21:17;5.47;;;4.50;;
26696;SDS011;14312;52.614;13.496;2024-02-15T19:24:03;4.20;;;3.80;;
26696;SDS011;14312;52.614;13.496;2024-02-15T19:26:50;4.82;;;4.43;;
26696;SDS011;14312;52.614;13.496;2024-02-15T19:29:36;5.15;;;4.68;;
26696;SDS011;14312;52.614;13.496;2024-02-15T19:32:22;4.70;;;4.30;;
26696;SDS011;14312;52.614;13.496;2024-02-15T19:35:08;5.07;;;4.57;;
26696;SDS011;14312;52.614;13.496;2024-02-15T19:37:54;4.75;;;4.35;;
26696;SDS011;14312;52.614;13.496;2024-02-15T19:40:40;4.90;;;4.50;;
26696;SDS011;14312;52.614;13.496;2024-02-15T19:43:27;5.45;;;4.95;;
26696;SDS011;14312;52.614;13.496;2024-02-15T19:46:15;5.43;;;4.93;;
26696;SDS011;14312;52.614;13.496;2024-02-15T19:49:01;4.72;;;4.32;;
26696;SDS011;14312;52.614;13.496;2024-02-15T19:51:47;5.20;;;4.80;;
26696;SDS011;14312;52.614;13.496;2024-02-15T19:54:36;4.90;;;4.50;;
